createdAt,value
2023-12-11T00:02:16.634Z,2.47
2023-12-11T00:04:44.380Z,3.22
2023-12-11T00:07:13.393Z,2.97
2023-12-11T00:09:41.145Z,2.53
2023-12-11T00:12:09.202Z,2.45
2023-12-11T00:14:36.812Z,2.40
2023-12-11T00:17:04.548Z,2.38
2023-12-11T00:19:32.898Z,2.70
2023-12-11T00:22:00.606Z,2.50
2023-12-11T00:24:29.546Z,2.28
2023-12-11T00:26:57.075Z,2.85
2023-12-11T00:29:24.635Z,2.65
2023-12-11T00:31:52.190Z,2.38
2023-12-11T00:34:19.976Z,3.17
2023-12-11T00:36:48.616Z,2.40
2023-12-11T00:39:17.401Z,3.40
2023-12-11T00:41:46.718Z,2.90
2023-12-11T00:44:14.282Z,2.65
2023-12-11T00:46:41.875Z,2.70
2023-12-11T00:49:10.019Z,3.22
2023-12-11T00:51:37.756Z,2.60
2023-12-11T00:54:05.574Z,3.05
2023-12-11T00:56:33.138Z,3.22
2023-12-11T00:59:02.088Z,2.88
2023-12-11T01:01:29.801Z,3.38
2023-12-11T01:03:57.427Z,2.80
2023-12-11T01:06:25.007Z,3.00
2023-12-11T01:08:52.567Z,2.95
2023-12-11T01:11:20.124Z,3.55
2023-12-11T01:13:47.732Z,2.70
2023-12-11T01:16:16.779Z,2.67
2023-12-11T01:18:45.196Z,2.50
2023-12-11T01:21:12.877Z,2.50
2023-12-11T01:23:41.233Z,3.00
2023-12-11T01:26:08.779Z,2.58
2023-12-11T01:28:36.750Z,2.00
2023-12-11T01:31:04.616Z,2.28
2023-12-11T01:33:33.795Z,2.70
2023-12-11T01:36:01.390Z,1.95
2023-12-11T01:38:28.943Z,2.10
2023-12-11T01:40:56.618Z,1.60
2023-12-11T01:43:25.995Z,1.65
2023-12-11T01:46:02.077Z,2.15
2023-12-11T01:48:30.154Z,2.28
2023-12-11T01:50:59.233Z,1.55
2023-12-11T01:53:27.885Z,2.42
2023-12-11T01:55:55.773Z,2.35
2023-12-11T01:58:23.737Z,1.65
2023-12-11T02:00:51.374Z,2.70
2023-12-11T02:03:19.815Z,2.85
2023-12-11T02:05:47.676Z,2.05
2023-12-11T02:08:17.776Z,2.33
2023-12-11T02:10:45.670Z,3.38
2023-12-11T02:13:13.406Z,3.03
2023-12-11T02:15:42.087Z,2.50
2023-12-11T02:18:10.925Z,2.30
2023-12-11T02:20:39.512Z,3.20
2023-12-11T02:23:10.497Z,2.28
2023-12-11T02:25:39.795Z,3.00
2023-12-11T02:28:08.882Z,2.63
2023-12-11T02:30:38.711Z,2.97
2023-12-11T02:33:06.787Z,2.22
2023-12-11T02:35:34.434Z,2.35
2023-12-11T02:38:01.972Z,1.98
2023-12-11T02:40:29.548Z,2.53
2023-12-11T02:42:57.179Z,2.00
2023-12-11T02:45:26.099Z,2.10
2023-12-11T02:47:58.091Z,2.28
2023-12-11T02:50:25.862Z,2.55
2023-12-11T02:52:53.410Z,1.50
2023-12-11T02:55:20.938Z,3.05
2023-12-11T02:57:48.532Z,1.85
2023-12-11T03:00:16.300Z,2.10
2023-12-11T03:02:45.295Z,2.10
2023-12-11T03:05:12.881Z,2.75
2023-12-11T03:07:40.417Z,2.08
2023-12-11T03:10:09.427Z,1.95
2023-12-11T03:12:37.166Z,1.88
2023-12-11T03:15:05.769Z,1.80
2023-12-11T03:17:33.592Z,1.65
2023-12-11T03:20:02.864Z,1.85
2023-12-11T03:22:30.581Z,1.63
2023-12-11T03:24:58.212Z,1.88
2023-12-11T03:27:25.763Z,1.73
2023-12-11T03:29:53.332Z,1.40
2023-12-11T03:32:20.859Z,2.00
2023-12-11T03:34:48.594Z,1.75
2023-12-11T03:37:17.507Z,2.42
2023-12-11T03:39:45.121Z,2.17
2023-12-11T03:42:12.665Z,1.83
2023-12-11T03:44:40.218Z,1.55
2023-12-11T03:47:07.816Z,2.13
2023-12-11T03:49:35.552Z,2.05
2023-12-11T03:52:03.604Z,2.83
2023-12-11T03:54:32.667Z,2.60
2023-12-11T03:57:00.257Z,2.75
2023-12-11T03:59:27.831Z,3.30
2023-12-11T04:01:55.533Z,3.53
2023-12-11T04:04:23.298Z,3.70
2023-12-11T04:06:50.934Z,2.83
2023-12-11T04:09:18.555Z,3.50
2023-12-11T04:11:47.492Z,3.00
2023-12-11T04:14:15.043Z,2.53
2023-12-11T04:16:43.705Z,3.15
2023-12-11T04:19:12.397Z,3.38
2023-12-11T04:21:40.205Z,3.30
2023-12-11T04:24:07.852Z,3.38
2023-12-11T04:26:35.668Z,2.53
2023-12-11T04:29:04.541Z,2.72
2023-12-11T04:31:32.119Z,3.30
2023-12-11T04:33:59.795Z,3.47
2023-12-11T04:36:27.588Z,3.03
2023-12-11T04:38:55.119Z,3.20
2023-12-11T04:41:22.722Z,3.75
2023-12-11T04:43:50.274Z,3.97
2023-12-11T04:46:19.321Z,3.47
2023-12-11T04:48:46.926Z,3.55
2023-12-11T04:51:14.807Z,3.63
2023-12-11T04:53:42.343Z,3.10
2023-12-11T04:56:10.868Z,3.70
2023-12-11T04:58:38.404Z,2.90
2023-12-11T05:01:06.259Z,3.63
2023-12-11T05:03:35.277Z,4.07
2023-12-11T05:06:02.860Z,3.80
2023-12-11T05:08:30.859Z,3.83
2023-12-11T05:10:58.535Z,3.28
2023-12-11T05:13:26.073Z,4.15
2023-12-11T05:15:53.703Z,2.92
2023-12-11T05:18:21.579Z,3.53
2023-12-11T05:20:50.521Z,4.00
2023-12-11T05:23:18.062Z,3.60
2023-12-11T05:25:45.620Z,3.42
2023-12-11T05:28:13.255Z,3.47
2023-12-11T05:30:40.959Z,4.07
2023-12-11T05:33:08.619Z,3.55
2023-12-11T05:35:36.273Z,3.85
2023-12-11T05:38:05.171Z,3.60
2023-12-11T05:40:32.758Z,4.85
2023-12-11T05:43:00.367Z,4.63
2023-12-11T05:45:28.089Z,3.78
2023-12-11T05:47:55.653Z,4.10
2023-12-11T05:50:23.733Z,3.83
2023-12-11T05:52:51.378Z,4.47
2023-12-11T05:55:20.345Z,5.05
2023-12-11T05:57:49.074Z,4.45
2023-12-11T06:00:17.631Z,4.57
2023-12-11T06:02:45.210Z,4.72
2023-12-11T06:05:13.375Z,4.15
2023-12-11T06:07:41.870Z,5.30
2023-12-11T06:10:09.919Z,5.32
2023-12-11T06:12:38.853Z,5.53
2023-12-11T06:15:07.482Z,5.50
2023-12-11T06:17:35.486Z,5.38
2023-12-11T06:20:04.610Z,6.07
2023-12-11T06:22:32.275Z,5.40
2023-12-11T06:24:59.955Z,6.07
2023-12-11T06:27:29.143Z,5.53
2023-12-11T06:29:58.332Z,5.45
2023-12-11T06:32:26.373Z,5.95
2023-12-11T06:34:54.236Z,5.22
2023-12-11T06:37:21.987Z,7.50
2023-12-11T06:39:50.117Z,7.25
2023-12-11T06:42:17.742Z,6.22
2023-12-11T06:44:45.295Z,6.68
2023-12-11T06:47:14.742Z,6.55
2023-12-11T06:49:43.593Z,6.55
2023-12-11T06:52:11.426Z,6.05
2023-12-11T06:54:39.047Z,7.53
2023-12-11T06:57:06.871Z,7.93
2023-12-11T06:59:34.437Z,8.23
2023-12-11T07:02:02.181Z,7.85
2023-12-11T07:04:30.291Z,7.65
2023-12-11T07:06:58.355Z,7.38
2023-12-11T07:09:26.565Z,8.50
2023-12-11T07:11:54.181Z,7.65
2023-12-11T07:14:21.749Z,8.68
2023-12-11T07:16:49.274Z,10.10
2023-12-11T07:19:16.987Z,10.20
2023-12-11T07:21:46.635Z,10.00
2023-12-11T07:24:14.201Z,9.80
2023-12-11T07:26:41.800Z,9.48
2023-12-11T07:29:09.714Z,9.85
2023-12-11T07:31:37.401Z,10.40
2023-12-11T07:34:05.053Z,12.35
2023-12-11T07:36:32.699Z,8.75
2023-12-11T07:39:01.625Z,9.15
2023-12-11T07:41:29.236Z,7.93
2023-12-11T07:43:56.800Z,9.45
2023-12-11T07:46:24.397Z,8.68
2023-12-11T07:48:53.102Z,9.38
2023-12-11T07:51:21.392Z,8.90
2023-12-11T07:53:49.313Z,8.50
2023-12-11T07:56:21.878Z,8.38
2023-12-11T07:58:49.524Z,9.70
2023-12-11T08:01:17.397Z,10.77
2023-12-11T08:03:45.646Z,8.65
2023-12-11T08:06:13.690Z,9.93
2023-12-11T08:08:44.422Z,9.38
2023-12-11T08:11:22.853Z,7.72
2023-12-11T08:13:50.873Z,8.80
2023-12-11T08:16:19.088Z,9.38
2023-12-11T08:18:48.147Z,9.98
2023-12-11T08:21:17.341Z,9.10
2023-12-11T08:23:45.845Z,7.63
2023-12-11T08:26:13.908Z,8.80
2023-12-11T08:28:42.821Z,8.65
2023-12-11T08:31:11.114Z,9.50
2023-12-11T08:33:38.892Z,6.95
2023-12-11T08:36:07.391Z,8.25
2023-12-11T08:38:35.121Z,9.00
2023-12-11T08:41:02.760Z,9.02
2023-12-11T08:43:30.461Z,7.32
2023-12-11T08:45:59.514Z,7.82
2023-12-11T08:48:28.784Z,8.38
2023-12-11T08:50:56.814Z,8.63
2023-12-11T08:53:24.932Z,9.23
2023-12-11T08:55:52.642Z,7.22
2023-12-11T08:58:20.340Z,8.55
2023-12-11T09:00:48.350Z,9.10
2023-12-11T09:03:17.341Z,9.13
2023-12-11T09:05:45.036Z,7.88
2023-12-11T09:08:12.671Z,7.35
2023-12-11T09:10:41.966Z,7.47
2023-12-11T09:13:09.641Z,7.00
2023-12-11T09:15:37.605Z,7.03
2023-12-11T09:18:07.445Z,8.13
2023-12-11T09:20:36.484Z,7.50
2023-12-11T09:23:04.133Z,7.10
2023-12-11T09:25:33.053Z,6.97
2023-12-11T09:30:29.720Z,7.25
2023-12-11T09:32:57.543Z,6.65
2023-12-11T09:35:25.349Z,7.00
2023-12-11T09:37:54.318Z,8.10
2023-12-11T09:40:22.193Z,6.57
2023-12-11T09:42:51.948Z,6.75
2023-12-11T09:45:22.612Z,6.03
2023-12-11T09:48:04.528Z,7.35
2023-12-11T09:50:39.070Z,6.97
2023-12-11T09:53:09.362Z,7.05
2023-12-11T09:55:37.038Z,5.93
2023-12-11T09:58:05.904Z,6.13
2023-12-11T10:00:33.695Z,6.78
2023-12-11T10:03:03.033Z,7.13
2023-12-11T10:05:31.898Z,6.18
2023-12-11T10:07:59.613Z,6.90
2023-12-11T10:10:31.924Z,6.05
2023-12-11T10:13:00.084Z,6.30
2023-12-11T10:15:28.882Z,7.43
2023-12-11T10:18:07.970Z,6.88
2023-12-11T10:20:36.875Z,6.05
2023-12-11T10:23:15.183Z,8.00
2023-12-11T10:25:45.757Z,7.05
2023-12-11T10:30:52.287Z,6.15
2023-12-11T10:33:20.774Z,5.78
2023-12-11T10:35:48.878Z,5.70
2023-12-11T10:38:22.992Z,6.38
2023-12-11T10:40:53.259Z,6.88
2023-12-11T10:43:21.206Z,6.78
2023-12-11T10:45:51.719Z,5.40
2023-12-11T10:48:21.979Z,7.15
2023-12-11T10:53:18.348Z,5.70
2023-12-11T10:55:46.510Z,7.68
2023-12-11T10:58:15.693Z,5.47
2023-12-11T11:00:43.706Z,7.55
2023-12-11T11:03:12.423Z,6.90
2023-12-11T11:05:40.590Z,6.30
2023-12-11T11:08:25.735Z,7.53
2023-12-11T11:10:56.978Z,7.25
2023-12-11T11:13:30.311Z,6.50
2023-12-11T11:15:58.252Z,5.85
2023-12-11T11:18:25.924Z,7.03
2023-12-11T11:21:13.181Z,6.70
2023-12-11T11:23:44.645Z,7.88
2023-12-11T11:26:35.720Z,8.38
2023-12-11T11:29:05.953Z,8.23
2023-12-11T11:31:52.608Z,7.20
2023-12-11T11:34:45.751Z,6.18
2023-12-11T11:37:15.818Z,6.40
2023-12-11T11:39:59.829Z,6.10
2023-12-11T11:42:27.856Z,5.47
2023-12-11T11:44:57.547Z,5.25
2023-12-11T11:47:26.570Z,5.53
2023-12-11T11:49:54.730Z,5.20
2023-12-11T11:52:26.819Z,4.43
2023-12-11T11:54:57.189Z,3.33
2023-12-11T11:57:28.976Z,3.08
2023-12-11T11:59:57.278Z,3.05
2023-12-11T12:02:27.342Z,2.92
2023-12-11T12:04:55.309Z,3.38
2023-12-11T12:07:23.948Z,3.38
2023-12-11T12:09:53.127Z,3.30
2023-12-11T12:12:20.763Z,3.65
2023-12-11T12:14:48.315Z,3.53
2023-12-11T12:17:16.080Z,3.95
2023-12-11T12:19:45.001Z,3.05
2023-12-11T12:22:14.629Z,3.83
2023-12-11T12:24:43.955Z,3.97
2023-12-11T12:27:13.694Z,3.50
2023-12-11T12:29:41.967Z,3.90
2023-12-11T12:32:10.519Z,3.92
2023-12-11T12:34:39.350Z,4.47
2023-12-11T12:37:08.903Z,3.85
2023-12-11T12:39:36.788Z,4.20
2023-12-11T12:42:04.737Z,4.07
2023-12-11T12:44:32.888Z,6.38
2023-12-11T12:47:02.938Z,4.53
2023-12-11T12:49:32.987Z,3.22
2023-12-11T12:52:01.557Z,4.95
2023-12-11T12:54:48.505Z,3.38
2023-12-11T12:57:17.508Z,3.47
2023-12-11T12:59:45.309Z,2.97
2023-12-11T13:02:14.911Z,3.28
2023-12-11T13:04:53.126Z,3.78
2023-12-11T13:07:23.276Z,3.13
2023-12-11T13:09:53.403Z,2.65
2023-12-11T13:12:22.097Z,3.40
2023-12-11T13:14:50.855Z,3.63
2023-12-11T13:17:18.538Z,3.55
2023-12-11T13:19:46.317Z,3.92
2023-12-11T13:22:15.040Z,3.97
2023-12-11T13:24:42.717Z,4.03
2023-12-11T13:27:11.684Z,4.68
2023-12-11T13:29:39.221Z,4.50
2023-12-11T13:32:07.929Z,4.32
2023-12-11T13:34:35.604Z,4.55
2023-12-11T13:37:03.451Z,4.82
2023-12-11T13:39:31.099Z,4.32
2023-12-11T13:41:58.719Z,2.30
2023-12-11T13:44:27.623Z,2.60
2023-12-11T13:46:55.192Z,2.50
2023-12-11T13:49:23.011Z,2.10
2023-12-11T13:51:50.966Z,1.73
2023-12-11T13:54:18.571Z,1.65
2023-12-11T13:56:47.750Z,2.13
2023-12-11T13:59:16.485Z,1.30
2023-12-11T14:01:45.488Z,2.25
2023-12-11T14:04:13.494Z,1.10
2023-12-11T14:06:42.843Z,1.40
2023-12-11T14:09:11.026Z,1.40
2023-12-11T14:11:38.614Z,1.10
2023-12-11T14:14:06.241Z,1.30
2023-12-11T14:16:34.021Z,1.58
2023-12-11T14:19:03.934Z,1.60
2023-12-11T14:21:31.675Z,1.67
2023-12-11T14:23:59.269Z,1.92
2023-12-11T14:26:26.846Z,4.22
2023-12-11T14:28:54.397Z,12.75
2023-12-11T14:31:22.035Z,3.00
2023-12-11T14:33:49.793Z,2.55
2023-12-11T14:36:25.086Z,2.55
2023-12-11T14:38:54.708Z,2.63
2023-12-11T14:41:22.290Z,3.20
2023-12-11T14:43:49.844Z,3.97
2023-12-11T14:46:17.480Z,2.25
2023-12-11T14:48:46.367Z,2.30
2023-12-11T14:51:14.012Z,2.58
2023-12-11T14:53:42.992Z,2.15
2023-12-11T14:56:11.128Z,2.28
2023-12-11T14:58:38.701Z,2.65
2023-12-11T15:01:06.496Z,3.90
2023-12-11T15:03:34.269Z,3.22
2023-12-11T15:06:02.964Z,2.42
2023-12-11T15:08:31.100Z,1.95
2023-12-11T15:11:00.281Z,1.73
2023-12-11T15:13:28.771Z,1.80
2023-12-11T15:15:57.414Z,1.48
2023-12-11T15:18:25.686Z,2.38
2023-12-11T15:20:53.405Z,2.35
2023-12-11T15:23:21.077Z,1.90
2023-12-11T15:25:48.689Z,1.98
2023-12-11T15:28:17.628Z,1.85
2023-12-11T15:30:45.991Z,2.38
2023-12-11T15:33:13.709Z,2.40
2023-12-11T15:35:41.285Z,3.47
2023-12-11T15:38:08.855Z,7.65
2023-12-11T15:40:36.450Z,10.07
2023-12-11T15:43:04.846Z,4.93
2023-12-11T15:45:33.792Z,4.30
2023-12-11T15:48:03.248Z,2.65
2023-12-11T15:52:59.697Z,2.28
2023-12-11T15:55:27.498Z,1.90
2023-12-11T15:57:55.242Z,2.13
2023-12-11T16:00:23.017Z,1.50
2023-12-11T16:02:53.743Z,1.63
2023-12-11T16:05:21.450Z,1.70
2023-12-11T16:07:49.074Z,1.75
2023-12-11T16:10:16.744Z,2.70
2023-12-11T16:12:44.447Z,1.50
2023-12-11T16:15:12.796Z,2.33
2023-12-11T16:17:40.394Z,2.67
2023-12-11T16:20:10.851Z,2.40
2023-12-11T16:22:38.509Z,3.00
2023-12-11T16:25:11.651Z,2.25
2023-12-11T16:27:39.841Z,2.15
2023-12-11T16:30:10.673Z,2.60
2023-12-11T16:32:38.363Z,1.92
2023-12-11T16:35:07.686Z,2.47
2023-12-11T16:37:36.768Z,2.13
2023-12-11T16:40:07.381Z,1.63
2023-12-11T16:42:35.841Z,1.55
2023-12-11T16:45:04.132Z,1.27
2023-12-11T16:47:31.772Z,1.10
2023-12-11T16:50:06.586Z,1.27
2023-12-11T16:52:37.558Z,1.50
2023-12-11T16:55:07.560Z,1.38
2023-12-11T16:57:35.321Z,1.92
2023-12-11T17:00:03.465Z,1.92
2023-12-11T17:02:31.253Z,1.83
2023-12-11T17:04:58.965Z,1.80
2023-12-11T17:07:26.728Z,1.77
2023-12-11T17:09:56.769Z,2.30
2023-12-11T17:12:24.499Z,2.90
2023-12-11T17:14:54.529Z,3.20
2023-12-11T17:17:23.497Z,3.22
2023-12-11T17:19:51.189Z,4.80
2023-12-11T17:22:19.206Z,3.58
2023-12-11T17:24:46.783Z,4.20
2023-12-11T17:27:15.765Z,2.67
2023-12-11T17:29:43.640Z,2.00
2023-12-11T17:32:11.230Z,2.25
2023-12-11T17:34:39.019Z,2.10
2023-12-11T17:37:06.694Z,2.15
2023-12-11T17:39:34.248Z,5.18
2023-12-11T17:42:01.842Z,3.33
2023-12-11T17:44:30.998Z,1.75
2023-12-11T17:46:58.544Z,1.90
2023-12-11T17:49:26.984Z,1.63
2023-12-11T17:51:54.826Z,1.55
2023-12-11T17:54:22.962Z,2.05
2023-12-11T17:56:50.511Z,2.03
2023-12-11T17:59:18.127Z,1.88
2023-12-11T18:01:47.189Z,1.45
2023-12-11T18:04:17.010Z,2.20
2023-12-11T18:06:44.754Z,1.85
2023-12-11T18:09:12.760Z,1.92
2023-12-11T18:11:40.287Z,1.52
2023-12-11T18:14:07.850Z,1.80
2023-12-11T18:16:35.479Z,1.60
2023-12-11T18:19:04.747Z,1.75
2023-12-11T18:21:32.411Z,1.48
2023-12-11T18:23:59.987Z,1.73
2023-12-11T18:26:27.537Z,1.80
2023-12-11T18:28:55.702Z,1.65
2023-12-11T18:31:23.552Z,1.90
2023-12-11T18:33:51.284Z,1.48
2023-12-11T18:36:20.264Z,1.88
2023-12-11T18:38:47.846Z,1.77
2023-12-11T18:41:22.440Z,1.35
2023-12-11T18:43:49.992Z,2.40
2023-12-11T18:46:19.125Z,1.30
2023-12-11T18:48:47.109Z,3.00
2023-12-11T18:51:26.289Z,2.03
2023-12-11T18:53:53.917Z,1.90
2023-12-11T18:56:23.322Z,2.03
2023-12-11T18:58:51.083Z,1.67
2023-12-11T19:01:18.752Z,1.83
2023-12-11T19:03:46.610Z,2.03
2023-12-11T19:06:14.525Z,1.73
2023-12-11T19:08:43.453Z,2.03
2023-12-11T19:11:13.335Z,2.45
2023-12-11T19:13:40.920Z,2.33
2023-12-11T19:16:09.407Z,2.00
2023-12-11T19:18:37.638Z,1.70
2023-12-11T19:21:06.334Z,1.77
2023-12-11T19:23:33.933Z,2.55
2023-12-11T19:26:02.830Z,2.08
2023-12-11T19:28:30.456Z,1.58
2023-12-11T19:30:58.238Z,2.00
2023-12-11T19:33:26.000Z,2.10
2023-12-11T19:35:53.689Z,2.85
2023-12-11T19:38:21.245Z,2.90
2023-12-11T19:40:48.780Z,3.03
2023-12-11T19:43:17.675Z,2.88
2023-12-11T19:45:45.265Z,2.55
2023-12-11T19:48:13.058Z,2.65
2023-12-11T19:50:40.700Z,2.05
2023-12-11T19:53:08.284Z,2.63
2023-12-11T19:55:35.972Z,2.67
2023-12-11T19:58:03.637Z,2.83
2023-12-11T20:00:32.603Z,3.17
2023-12-11T20:03:00.278Z,2.97
2023-12-11T20:05:28.029Z,3.60
2023-12-11T20:07:55.752Z,2.92
2023-12-11T20:10:23.485Z,3.30
2023-12-11T20:12:51.211Z,3.45
2023-12-11T20:15:19.182Z,4.00
2023-12-11T20:17:48.315Z,3.47
2023-12-11T20:20:16.023Z,3.75
2023-12-11T20:22:45.124Z,2.90
2023-12-11T20:25:12.847Z,3.90
2023-12-11T20:27:40.467Z,2.75
2023-12-11T20:30:09.381Z,3.13
2023-12-11T20:32:37.319Z,3.22
2023-12-11T20:35:07.321Z,4.10
2023-12-11T20:37:37.508Z,3.17
2023-12-11T20:40:05.806Z,3.38
2023-12-11T20:42:33.470Z,3.50
2023-12-11T20:45:01.137Z,2.95
2023-12-11T20:47:28.890Z,3.15
2023-12-11T20:49:56.713Z,2.97
2023-12-11T20:52:25.752Z,2.53
2023-12-11T20:54:53.353Z,2.67
2023-12-11T20:57:20.920Z,2.35
2023-12-11T20:59:48.480Z,2.42
2023-12-11T21:02:16.155Z,2.25
2023-12-11T21:04:44.152Z,2.65
2023-12-11T21:07:11.778Z,2.78
2023-12-11T21:09:43.628Z,2.28
2023-12-11T21:12:11.214Z,1.73
2023-12-11T21:14:39.308Z,1.73
2023-12-11T21:17:06.876Z,1.35
2023-12-11T21:19:34.601Z,1.83
2023-12-11T21:22:02.188Z,1.73
2023-12-11T21:24:29.755Z,1.98
2023-12-11T21:26:58.658Z,1.58
2023-12-11T21:29:26.258Z,1.35
2023-12-11T21:31:53.932Z,1.90
2023-12-11T21:34:21.575Z,1.65
2023-12-11T21:36:49.152Z,1.80
2023-12-11T21:39:17.913Z,1.65
2023-12-11T21:41:45.555Z,1.58
2023-12-11T21:44:14.479Z,1.27
2023-12-11T21:46:42.014Z,1.70
2023-12-11T21:49:09.725Z,1.73
2023-12-11T21:51:37.340Z,1.58
2023-12-11T21:54:05.305Z,1.83
2023-12-11T21:56:34.335Z,1.55
2023-12-11T21:59:01.908Z,2.17
2023-12-11T22:01:30.867Z,1.30
2023-12-11T22:03:58.490Z,2.00
2023-12-11T22:06:26.059Z,1.58
2023-12-11T22:08:53.801Z,1.60
2023-12-11T22:11:23.187Z,1.30
2023-12-11T22:13:50.793Z,1.40
2023-12-11T22:16:18.401Z,1.58
2023-12-11T22:18:48.695Z,1.60
2023-12-11T22:21:22.732Z,1.95
2023-12-11T22:23:50.360Z,1.95
2023-12-11T22:26:18.037Z,1.45
2023-12-11T22:28:46.293Z,1.23
2023-12-11T22:31:13.937Z,1.95
2023-12-11T22:33:41.637Z,2.17
2023-12-11T22:36:10.752Z,1.85
2023-12-11T22:38:38.793Z,1.75
2023-12-11T22:41:06.420Z,1.50
2023-12-11T22:43:34.031Z,1.63
2023-12-11T22:46:01.666Z,1.60
2023-12-11T22:48:29.370Z,1.67
2023-12-11T22:50:56.981Z,1.70
2023-12-11T22:53:25.844Z,1.38
2023-12-11T22:55:53.408Z,1.50
2023-12-11T22:58:21.009Z,1.45
2023-12-11T23:00:48.656Z,1.60
2023-12-11T23:03:16.250Z,1.60
2023-12-11T23:05:43.929Z,1.33
2023-12-11T23:08:11.580Z,1.42
2023-12-11T23:10:40.557Z,1.50
2023-12-11T23:13:08.214Z,1.33
2023-12-11T23:15:35.802Z,1.33
2023-12-11T23:18:03.446Z,1.50
2023-12-11T23:20:31.037Z,1.95
2023-12-11T23:22:58.639Z,1.83
2023-12-11T23:25:26.241Z,1.20
2023-12-11T23:27:55.162Z,1.52
2023-12-11T23:30:22.726Z,1.70
2023-12-11T23:32:50.384Z,1.60
2023-12-11T23:35:18.091Z,1.20
2023-12-11T23:37:45.656Z,1.17
2023-12-11T23:40:13.526Z,1.60
2023-12-11T23:42:41.151Z,1.38
2023-12-11T23:45:10.690Z,1.45
2023-12-11T23:47:38.783Z,1.38
2023-12-11T23:50:08.028Z,1.13
2023-12-11T23:52:35.750Z,1.90
2023-12-11T23:55:04.293Z,1.70
2023-12-11T23:57:32.158Z,1.70
2023-12-11T23:59:59.948Z,1.52
